Time,TemperatureF,DewpointF,PressureIn,WindDirection,WindDirectionDegrees,WindSpeedMPH,WindSpeedGustMPH,Humidity,HourlyPrecipIn,Conditions,Clouds,dailyrainin,SoftwareType,DateUTC
2014-02-13 00:25:00,13.2,10.0,29.90,SE,146,3.0,7.0,88,0.00,,,0.00,weatherlink.com 1.10,2014-02-13 06:25:00,
2014-02-13 00:56:00,12.9,10.0,29.87,SE,145,3.0,7.0,89,0.00,,,0.00,weatherlink.com 1.10,2014-02-13 06:56:00,
2014-02-13 01:11:00,13.4,11.0,29.86,SSE,159,3.0,7.0,89,0.00,,,0.00,weatherlink.com 1.10,2014-02-13 07:11:00,
2014-02-13 01:25:00,13.9,12.0,29.83,SE,144,7.0,9.0,90,0.00,,,0.00,weatherlink.com 1.10,2014-02-13 07:25:00,
2014-02-13 01:40:00,14.6,12.0,29.83,South,169,5.0,10.0,90,0.00,,,0.00,weatherlink.com 1.10,2014-02-13 07:40:00,
2014-02-13 02:02:00,14.9,13.0,29.81,SE,136,7.0,11.0,91,0.00,,,0.00,weatherlink.com 1.10,2014-02-13 08:02:00,
2014-02-13 02:25:00,15.8,13.0,29.78,SE,146,3.0,12.0,90,0.00,,,0.00,weatherlink.com 1.10,2014-02-13 08:25:00,
2014-02-13 02:40:00,15.6,13.0,29.78,SE,138,8.0,8.0,90,0.00,,,0.00,weatherlink.com 1.10,2014-02-13 08:40:00,
2014-02-13 03:26:00,16.3,14.0,29.73,SSE,159,6.0,14.0,90,0.00,,,0.00,weatherlink.com 1.10,2014-02-13 09:26:00,
2014-02-13 03:41:00,16.7,14.0,29.70,SE,137,6.0,11.0,90,0.00,,,0.00,weatherlink.com 1.10,2014-02-13 09:41:00,
2014-02-13 04:15:00,17.8,16.0,29.66,SSE,159,7.0,13.0,91,0.00,,,0.00,weatherlink.com 1.10,2014-02-13 10:15:00,
2014-02-13 05:06:00,18.7,16.0,29.65,SSW,195,3.0,11.0,90,0.00,,,0.00,weatherlink.com 1.10,2014-02-13 11:06:00,
2014-02-13 05:11:00,19.7,17.0,29.63,SE,136,6.0,12.0,89,0.00,,,0.00,weatherlink.com 1.10,2014-02-13 11:11:00,
2014-02-13 05:41:00,21.3,18.0,29.61,South,180,2.0,9.0,88,0.00,,,0.00,weatherlink.com 1.10,2014-02-13 11:41:00,
2014-02-13 05:56:00,21.7,19.0,29.60,SSW,198,4.0,8.0,88,0.00,,,0.00,weatherlink.com 1.10,2014-02-13 11:56:00,
2014-02-13 06:11:00,22.7,19.0,29.59,SSE,161,6.0,11.0,87,0.00,,,0.00,weatherlink.com 1.10,2014-02-13 12:11:00,
2014-02-13 06:27:00,22.8,19.0,29.59,South,188,9.0,13.0,86,0.00,,,0.00,weatherlink.com 1.10,2014-02-13 12:27:00,
2014-02-13 06:42:00,22.4,19.0,29.57,SSE,157,6.0,12.0,86,0.00,,,0.00,weatherlink.com 1.10,2014-02-13 12:42:00,
2014-02-13 07:42:00,22.6,20.0,29.56,SSE,149,4.0,8.0,89,0.00,,,0.00,weatherlink.com 1.10,2014-02-13 13:42:00,
2014-02-13 07:57:00,24.1,21.0,29.55,SSW,205,4.0,13.0,88,0.00,,,0.00,weatherlink.com 1.10,2014-02-13 13:57:00,
2014-02-13 08:27:00,25.7,22.0,29.55,SSW,198,6.0,10.0,87,0.00,,,0.00,weatherlink.com 1.10,2014-02-13 14:27:00,
2014-02-13 08:42:00,26.4,23.0,29.55,SSW,195,4.0,10.0,87,0.00,,,0.00,weatherlink.com 1.10,2014-02-13 14:42:00,
2014-02-13 08:57:00,27.3,24.0,29.54,WSW,243,10.0,11.0,87,0.00,,,0.00,weatherlink.com 1.10,2014-02-13 14:57:00,
2014-02-13 09:12:00,28.4,25.0,29.54,SSW,208,4.0,8.0,86,0.00,,,0.00,weatherlink.com 1.10,2014-02-13 15:12:00,
2014-02-13 09:27:00,29.4,26.0,29.54,SW,226,3.0,8.0,86,0.00,,,0.00,weatherlink.com 1.10,2014-02-13 15:27:00,
2014-02-13 09:42:00,31.4,27.0,29.54,SW,236,3.0,9.0,84,0.00,,,0.00,weatherlink.com 1.10,2014-02-13 15:42:00,
2014-02-13 10:13:00,29.5,22.0,29.56,WNW,284,11.0,26.0,74,0.00,,,0.00,weatherlink.com 1.10,2014-02-13 16:13:00,
2014-02-13 10:28:00,28.2,21.0,29.56,West,271,5.0,19.0,75,0.00,,,0.00,weatherlink.com 1.10,2014-02-13 16:28:00,
2014-02-13 10:43:00,26.1,20.0,29.57,WNW,290,6.0,14.0,78,0.00,,,0.00,weatherlink.com 1.10,2014-02-13 16:43:00,
2014-02-13 11:13:00,22.9,17.0,29.59,WNW,285,9.0,14.0,77,0.00,,,0.00,weatherlink.com 1.10,2014-02-13 17:13:00,
2014-02-13 12:13:00,20.1,15.0,29.59,WNW,287,12.0,15.0,80,0.00,,,0.00,weatherlink.com 1.10,2014-02-13 18:13:00,
2014-02-13 12:28:00,19.4,14.0,29.59,West,259,9.0,15.0,80,0.00,,,0.00,weatherlink.com 1.10,2014-02-13 18:28:00,
2014-02-13 12:43:00,19.0,14.0,29.59,West,276,8.0,17.0,82,0.00,,,0.00,weatherlink.com 1.10,2014-02-13 18:43:00,
2014-02-13 12:58:00,18.9,14.0,29.59,NNW,333,3.0,17.0,82,0.00,,,0.00,weatherlink.com 1.10,2014-02-13 18:58:00,
2014-02-13 13:28:00,18.0,13.0,29.61,WNW,289,4.0,18.0,81,0.00,,,0.00,weatherlink.com 1.10,2014-02-13 19:28:00,
2014-02-13 13:43:00,17.8,13.0,29.62,WNW,284,11.0,18.0,81,0.00,,,0.00,weatherlink.com 1.10,2014-02-13 19:43:00,
2014-02-13 14:13:00,17.1,13.0,29.63,West,270,4.0,16.0,83,0.00,,,0.00,weatherlink.com 1.10,2014-02-13 20:13:00,
2014-02-13 14:28:00,17.4,13.0,29.64,West,260,8.0,12.0,82,0.00,,,0.00,weatherlink.com 1.10,2014-02-13 20:28:00,
2014-02-13 14:43:00,17.3,12.0,29.65,West,277,6.0,17.0,81,0.00,,,0.00,weatherlink.com 1.10,2014-02-13 20:43:00,
2014-02-13 14:58:00,16.7,12.0,29.66,West,265,7.0,19.0,80,0.00,,,0.00,weatherlink.com 1.10,2014-02-13 20:58:00,
2014-02-13 15:13:00,16.8,11.0,29.67,West,276,6.0,12.0,79,0.00,,,0.00,weatherlink.com 1.10,2014-02-13 21:13:00,
2014-02-13 15:28:00,16.4,11.0,29.68,West,260,3.0,15.0,80,0.00,,,0.00,weatherlink.com 1.10,2014-02-13 21:28:00,
2014-02-13 15:43:00,16.3,11.0,29.69,West,276,6.0,12.0,80,0.00,,,0.00,weatherlink.com 1.10,2014-02-13 21:43:00,
2014-02-13 15:58:00,15.9,10.0,29.69,WNW,287,6.0,10.0,78,0.00,,,0.00,weatherlink.com 1.10,2014-02-13 21:58:00,
2014-02-13 16:13:00,15.4,10.0,29.70,WNW,287,7.0,13.0,78,0.00,,,0.00,weatherlink.com 1.10,2014-02-13 22:13:00,
2014-02-13 16:28:00,14.9,10.0,29.71,WNW,285,6.0,11.0,79,0.00,,,0.00,weatherlink.com 1.10,2014-02-13 22:28:00,
2014-02-13 16:43:00,14.3,9.0,29.72,NW,326,3.0,12.0,79,0.00,,,0.00,weatherlink.com 1.10,2014-02-13 22:43:00,
2014-02-13 16:58:00,13.7,9.0,29.73,WNW,291,5.0,10.0,80,0.00,,,0.00,weatherlink.com 1.10,2014-02-13 22:58:00,
2014-02-13 17:13:00,12.8,8.0,29.74,WNW,287,5.0,9.0,80,0.00,,,0.00,weatherlink.com 1.10,2014-02-13 23:13:00,
2014-02-13 17:28:00,12.2,7.0,29.75,NW,306,4.0,11.0,80,0.00,,,0.00,weatherlink.com 1.10,2014-02-13 23:28:00,
2014-02-13 17:43:00,11.3,6.0,29.75,WNW,287,4.0,7.0,80,0.00,,,0.00,weatherlink.com 1.10,2014-02-13 23:43:00,
2014-02-13 17:58:00,10.7,6.0,29.76,WNW,290,3.0,8.0,81,0.00,,,0.00,weatherlink.com 1.10,2014-02-13 23:58:00,
2014-02-13 18:14:00,10.3,6.0,29.77,WNW,283,3.0,10.0,81,0.00,,,0.00,weatherlink.com 1.10,2014-02-14 00:14:00,
2014-02-13 18:29:00,9.9,5.0,29.78,West,262,4.0,9.0,81,0.00,,,0.00,weatherlink.com 1.10,2014-02-14 00:29:00,
2014-02-13 18:44:00,9.5,5.0,29.78,West,274,5.0,9.0,81,0.00,,,0.00,weatherlink.com 1.10,2014-02-14 00:44:00,
2014-02-13 18:59:00,9.0,4.0,29.78,WNW,284,7.0,9.0,81,0.00,,,0.00,weatherlink.com 1.10,2014-02-14 00:59:00,
2014-02-13 19:14:00,8.4,4.0,29.79,West,279,4.0,8.0,81,0.00,,,0.00,weatherlink.com 1.10,2014-02-14 01:14:00,
2014-02-13 19:29:00,8.2,4.0,29.79,WNW,288,4.0,8.0,81,0.00,,,0.00,weatherlink.com 1.10,2014-02-14 01:29:00,
2014-02-13 19:44:00,7.6,3.0,29.79,West,277,5.0,8.0,81,0.00,,,0.00,weatherlink.com 1.10,2014-02-14 01:44:00,
2014-02-13 19:59:00,7.4,3.0,29.80,West,274,3.0,8.0,81,0.00,,,0.00,weatherlink.com 1.10,2014-02-14 01:59:00,
2014-02-13 20:14:00,6.9,2.0,29.80,WNW,288,5.0,11.0,81,0.00,,,0.00,weatherlink.com 1.10,2014-02-14 02:14:00,
2014-02-13 20:29:00,6.8,2.0,29.81,West,281,5.0,9.0,81,0.00,,,0.00,weatherlink.com 1.10,2014-02-14 02:29:00,
2014-02-13 20:44:00,6.4,2.0,29.81,WNW,284,2.0,9.0,81,0.00,,,0.00,weatherlink.com 1.10,2014-02-14 02:44:00,
2014-02-13 20:59:00,6.3,2.0,29.81,WNW,288,4.0,10.0,81,0.00,,,0.00,weatherlink.com 1.10,2014-02-14 02:59:00,
2014-02-13 21:14:00,6.0,1.0,29.82,West,274,3.0,8.0,81,0.00,,,0.00,weatherlink.com 1.10,2014-02-14 03:14:00,
2014-02-13 21:29:00,5.0,0.0,29.82,WNW,285,4.0,8.0,81,0.00,,,0.00,weatherlink.com 1.10,2014-02-14 03:29:00,
2014-02-13 21:44:00,4.6,0.0,29.82,West,277,2.0,6.0,81,0.00,,,0.00,weatherlink.com 1.10,2014-02-14 03:44:00,
2014-02-13 21:59:00,4.4,0.0,29.82,West,271,3.0,8.0,82,0.00,,,0.00,weatherlink.com 1.10,2014-02-14 03:59:00,
2014-02-13 22:14:00,4.5,0.0,29.83,NW,323,2.0,9.0,82,0.00,,,0.00,weatherlink.com 1.10,2014-02-14 04:14:00,
2014-02-13 22:29:00,4.1,-1.0,29.83,West,274,4.0,9.0,81,0.00,,,0.00,weatherlink.com 1.10,2014-02-14 04:29:00,
2014-02-13 22:45:00,3.9,0.0,29.83,West,279,2.0,8.0,82,0.00,,,0.00,weatherlink.com 1.10,2014-02-14 04:45:00,
2014-02-13 23:00:00,3.7,-1.0,29.82,WNW,295,3.0,6.0,82,0.00,,,0.00,weatherlink.com 1.10,2014-02-14 05:00:00,
2014-02-13 23:15:00,3.6,-1.0,29.82,WNW,294,2.0,6.0,82,0.00,,,0.00,weatherlink.com 1.10,2014-02-14 05:15:00,
2014-02-13 23:30:00,3.5,-1.0,29.82,WNW,292,1.0,6.0,82,0.00,,,0.00,weatherlink.com 1.10,2014-02-14 05:30:00,
2014-02-13 23:45:00,3.5,-1.0,29.82,West,271,2.0,6.0,83,0.00,,,0.00,weatherlink.com 1.10,2014-02-14 05:45:00,